Time;durP1;ratioP1;P1;durP2;ratioP2;P2;SDS_P1;SDS_P2;PMS_P1;PMS_P2;Temp;Humidity;BMP_temperature;BMP_pressure;BME280_temperature;BME280_humidity;BME280_pressure;Samples;Min_cycle;Max_cycle;Signal;HPM_P1;HPM_P2
2023/12/23 00:00:52;;;;;;;1.65;1.42;;;1.80;1.00;;;;;;5104369;27;20560;-77
2023/12/23 00:03:19;;;;;;;3.75;0.77;;;1.90;1.00;;;;;;5104393;27;20264;-75
2023/12/23 00:05:47;;;;;;;1.40;0.80;;;1.90;1.00;;;;;;5107081;27;20730;-75
2023/12/23 00:08:19;;;;;;;2.08;0.70;;;1.90;1.00;;;;;;5108338;27;20235;-74
2023/12/23 00:10:46;;;;;;;1.27;0.60;;;1.80;1.00;;;;;;5105041;27;20663;-76
2023/12/23 00:13:13;;;;;;;1.20;0.75;;;1.80;1.00;;;;;;5105864;27;20231;-76
2023/12/23 00:15:41;;;;;;;2.20;0.50;;;1.70;1.00;;;;;;5104431;27;20330;-76
2023/12/23 00:18:08;;;;;;;0.75;0.50;;;1.80;1.00;;;;;;5103327;27;20236;-76
2023/12/23 00:20:36;;;;;;;2.25;0.60;;;1.80;1.00;;;;;;5106638;27;20334;-77
2023/12/23 00:23:03;;;;;;;1.05;0.60;;;1.80;1.00;;;;;;5104713;27;20243;-74
2023/12/23 00:25:30;;;;;;;1.35;0.60;;;1.80;1.00;;;;;;5105876;27;20231;-74
2023/12/23 00:27:57;;;;;;;3.13;0.80;;;1.80;1.00;;;;;;5108089;27;21153;-75
2023/12/23 00:30:24;;;;;;;1.15;0.80;;;1.80;1.00;;;;;;5110846;27;20823;-76
2023/12/23 00:32:56;;;;;;;1.70;1.00;;;1.80;1.00;;;;;;5106368;27;20235;-75
2023/12/23 00:35:23;;;;;;;1.85;0.73;;;1.80;1.00;;;;;;5109704;27;20686;-75
2023/12/23 00:37:50;;;;;;;0.90;0.80;;;1.70;1.00;;;;;;5107212;27;20231;-74
2023/12/23 00:40:17;;;;;;;1.42;0.95;;;1.70;1.00;;;;;;5103941;27;20228;-76
2023/12/23 00:42:44;;;;;;;1.17;0.70;;;1.60;1.00;;;;;;5106069;27;20235;-75
2023/12/23 00:45:11;;;;;;;3.38;0.68;;;1.60;1.00;;;;;;5108848;27;20243;-76
2023/12/23 00:47:38;;;;;;;1.10;0.95;;;1.50;1.00;;;;;;5106065;27;20240;-75
2023/12/23 00:50:08;;;;;;;2.03;1.00;;;1.60;1.00;;;;;;5096693;27;21144;-77
2023/12/23 00:52:35;;;;;;;1.67;0.68;;;1.70;1.00;;;;;;5107938;27;20245;-74
2023/12/23 00:55:02;;;;;;;1.10;1.00;;;1.70;1.00;;;;;;5108699;27;20262;-74
2023/12/23 00:57:29;;;;;;;1.25;0.70;;;1.70;1.00;;;;;;5108931;27;20750;-77
2023/12/23 00:59:56;;;;;;;0.90;0.55;;;1.80;1.00;;;;;;5108056;27;20262;-75
2023/12/23 01:02:23;;;;;;;1.23;0.68;;;1.80;1.00;;;;;;5109264;27;20293;-75
2023/12/23 01:04:50;;;;;;;1.63;1.10;;;1.80;1.00;;;;;;5107584;27;20316;-76
2023/12/23 01:07:18;;;;;;;2.85;0.80;;;1.80;1.00;;;;;;5106271;27;20325;-76
2023/12/23 01:09:45;;;;;;;1.73;0.90;;;1.80;1.00;;;;;;5106122;27;20220;-75
2023/12/23 01:12:20;;;;;;;3.78;1.40;;;1.70;1.00;;;;;;5104658;27;20302;-74
2023/12/23 01:14:50;;;;;;;2.63;0.95;;;1.60;1.00;;;;;;5108299;27;20771;-76
2023/12/23 01:17:19;;;;;;;1.67;0.85;;;1.60;1.00;;;;;;5088255;27;20240;-75
2023/12/23 01:19:46;;;;;;;3.22;0.98;;;1.50;1.00;;;;;;5087895;28;20248;-75
2023/12/23 01:22:13;;;;;;;3.30;0.90;;;1.50;1.00;;;;;;5090435;28;20250;-75
2023/12/23 01:24:41;;;;;;;1.23;1.00;;;1.50;1.00;;;;;;5089796;28;20366;-76
2023/12/23 01:27:08;;;;;;;1.98;1.10;;;1.50;1.00;;;;;;5088808;28;20244;-76
2023/12/23 01:29:35;;;;;;;4.70;1.10;;;1.60;1.00;;;;;;5089047;28;20264;-76
2023/12/23 01:32:04;;;;;;;3.53;1.25;;;1.60;1.00;;;;;;5092346;27;20232;-76
2023/12/23 01:34:31;;;;;;;1.60;1.00;;;1.70;1.00;;;;;;5088031;28;20253;-75
2023/12/23 01:36:58;;;;;;;1.65;1.15;;;1.70;1.00;;;;;;5089989;28;20781;-76
2023/12/23 01:39:25;;;;;;;1.80;1.00;;;1.80;1.00;;;;;;5091225;28;20272;-75
2023/12/23 01:41:53;;;;;;;5.20;1.40;;;1.80;1.00;;;;;;5088573;28;20275;-75
2023/12/23 01:44:20;;;;;;;2.63;1.40;;;1.80;1.00;;;;;;5092349;28;20723;-74
2023/12/23 01:46:48;;;;;;;2.95;1.00;;;1.80;1.00;;;;;;5088461;28;21162;-75
2023/12/23 01:49:15;;;;;;;3.05;1.00;;;1.80;1.00;;;;;;5089352;28;20244;-76
2023/12/23 01:51:42;;;;;;;2.55;1.85;;;1.90;1.00;;;;;;5091729;28;20618;-76
2023/12/23 01:54:09;;;;;;;1.92;1.25;;;1.90;1.00;;;;;;5091285;28;20942;-75
2023/12/23 01:56:36;;;;;;;2.38;0.95;;;1.90;1.00;;;;;;5089545;28;20236;-73
2023/12/23 01:59:05;;;;;;;3.13;1.90;;;1.90;1.00;;;;;;5090302;28;20240;-75
2023/12/23 02:01:33;;;;;;;3.20;1.00;;;1.90;1.00;;;;;;5088334;28;20262;-75
2023/12/23 02:04:00;;;;;;;2.67;1.08;;;1.90;1.00;;;;;;5087809;28;20235;-76
2023/12/23 02:06:27;;;;;;;2.65;0.80;;;1.90;1.00;;;;;;5089145;27;21094;-77
2023/12/23 02:08:54;;;;;;;1.70;1.10;;;1.90;1.00;;;;;;5087568;28;20315;-76
2023/12/23 02:11:30;;;;;;;2.30;0.82;;;1.90;1.00;;;;;;5086912;28;20532;-76
2023/12/23 02:14:10;;;;;;;1.35;0.82;;;1.90;1.00;;;;;;5089310;28;20303;-76
2023/12/23 02:16:39;;;;;;;3.88;1.20;;;1.90;1.00;;;;;;5086840;28;22037;-75
2023/12/23 02:19:06;;;;;;;4.45;1.50;;;1.90;1.00;;;;;;5088997;28;20236;-76
2023/12/23 02:21:34;;;;;;;2.55;0.93;;;1.90;1.00;;;;;;5087562;28;20243;-75
2023/12/23 02:24:01;;;;;;;3.50;0.98;;;1.90;1.00;;;;;;5089824;28;20313;-76
2023/12/23 02:26:33;;;;;;;2.03;0.90;;;1.90;1.00;;;;;;5086213;28;21767;-75
2023/12/23 02:29:03;;;;;;;2.85;0.95;;;1.80;1.00;;;;;;5089539;28;20292;-75
2023/12/23 02:31:31;;;;;;;3.38;1.00;;;1.70;1.00;;;;;;5086073;28;20236;-76
2023/12/23 02:33:59;;;;;;;3.88;1.35;;;1.70;1.00;;;;;;5087164;28;20270;-73
2023/12/23 02:36:26;;;;;;;3.15;0.80;;;1.60;1.00;;;;;;5085289;28;20318;-75
2023/12/23 02:38:54;;;;;;;1.77;0.75;;;1.60;1.00;;;;;;5087844;28;20869;-75
2023/12/23 02:41:21;;;;;;;3.55;1.98;;;1.60;1.00;;;;;;5089131;28;20695;-76
2023/12/23 02:43:48;;;;;;;2.25;0.80;;;1.60;1.00;;;;;;5084207;28;20237;-76
2023/12/23 02:46:15;;;;;;;3.90;1.35;;;1.50;1.00;;;;;;5083495;28;20299;-75
2023/12/23 02:48:42;;;;;;;3.00;1.17;;;1.50;1.00;;;;;;5091788;28;21744;-75
2023/12/23 02:51:11;;;;;;;3.53;1.15;;;1.40;1.00;;;;;;5085164;28;20334;-76
2023/12/23 02:53:38;;;;;;;2.13;0.80;;;1.40;1.00;;;;;;5085897;28;20303;-75
2023/12/23 02:56:07;;;;;;;2.50;0.98;;;1.40;1.00;;;;;;5086659;28;20345;-74
2023/12/23 02:58:33;;;;;;;5.53;1.20;;;1.40;1.00;;;;;;5087663;28;21218;-75
2023/12/23 03:01:00;;;;;;;2.45;1.00;;;1.40;1.00;;;;;;5084772;28;20997;-75
2023/12/23 03:03:27;;;;;;;4.65;0.90;;;1.40;1.00;;;;;;5086570;28;20898;-74
2023/12/23 03:05:54;;;;;;;2.50;0.90;;;1.40;1.00;;;;;;5082720;28;20763;-75
2023/12/23 03:08:21;;;;;;;3.22;1.10;;;1.40;1.00;;;;;;5087085;28;20240;-79
2023/12/23 03:10:48;;;;;;;2.22;1.20;;;1.40;1.00;;;;;;5084132;28;20325;-75
2023/12/23 03:13:16;;;;;;;1.70;0.50;;;1.40;1.00;;;;;;5087443;28;20256;-75
2023/12/23 03:15:44;;;;;;;2.95;1.02;;;1.40;1.00;;;;;;5083418;28;21045;-75
2023/12/23 03:18:11;;;;;;;2.35;1.10;;;1.40;1.00;;;;;;5087081;28;20235;-75
2023/12/23 03:20:38;;;;;;;3.55;1.00;;;1.30;1.00;;;;;;5086003;28;20239;-76
2023/12/23 03:23:05;;;;;;;3.17;0.95;;;1.30;1.00;;;;;;5084635;28;20236;-77
2023/12/23 03:25:32;;;;;;;1.63;0.85;;;1.30;1.00;;;;;;5083274;28;20297;-75
2023/12/23 03:27:59;;;;;;;1.88;0.90;;;1.30;1.00;;;;;;5086213;28;20235;-75
2023/12/23 03:30:27;;;;;;;2.38;0.80;;;1.30;1.00;;;;;;5084906;28;20308;-75
2023/12/23 03:32:54;;;;;;;2.28;0.90;;;1.30;1.00;;;;;;5083783;28;20613;-74
2023/12/23 03:35:21;;;;;;;0.60;0.60;;;1.30;1.00;;;;;;5088097;28;20239;-76
2023/12/23 03:37:48;;;;;;;1.70;0.82;;;1.30;1.00;;;;;;5086444;28;20240;-74
2023/12/23 03:40:15;;;;;;;0.90;0.60;;;1.30;1.00;;;;;;5088168;28;20254;-75
2023/12/23 03:42:42;;;;;;;6.07;0.70;;;1.40;1.00;;;;;;5090215;28;20270;-74
2023/12/23 03:45:10;;;;;;;4.80;0.85;;;1.30;1.00;;;;;;5088129;28;20323;-74
2023/12/23 03:47:40;;;;;;;1.58;1.35;;;1.40;1.00;;;;;;5088268;28;20341;-75
2023/12/23 03:50:11;;;;;;;1.67;1.10;;;1.40;1.00;;;;;;5086709;28;20615;-77
2023/12/23 03:52:38;;;;;;;6.80;0.80;;;1.40;1.00;;;;;;5085235;28;20235;-78
2023/12/23 03:55:05;;;;;;;2.65;0.82;;;1.40;1.00;;;;;;5089610;28;20318;-74
2023/12/23 03:57:32;;;;;;;2.13;0.90;;;1.40;1.00;;;;;;5094678;28;21053;-75
2023/12/23 03:59:59;;;;;;;2.90;0.88;;;1.40;1.00;;;;;;5090258;28;20323;-77
2023/12/23 04:02:26;;;;;;;5.35;1.20;;;1.40;1.00;;;;;;5090251;28;20727;-75
2023/12/23 04:04:55;;;;;;;2.42;0.90;;;1.40;1.00;;;;;;5089517;27;20318;-77
2023/12/23 04:07:22;;;;;;;6.03;1.30;;;1.50;1.00;;;;;;5090403;28;20735;-77
2023/12/23 04:09:50;;;;;;;3.55;0.95;;;1.50;1.00;;;;;;5088081;28;20360;-75
2023/12/23 04:12:17;;;;;;;3.25;1.30;;;1.50;1.00;;;;;;5089272;28;20243;-75
2023/12/23 04:14:44;;;;;;;2.50;1.10;;;1.50;1.00;;;;;;5090467;28;20236;-75
2023/12/23 04:17:11;;;;;;;4.45;1.88;;;1.60;1.00;;;;;;5106272;27;20723;-75
2023/12/23 04:19:38;;;;;;;4.82;1.42;;;1.60;1.00;;;;;;5107095;27;21774;-71
2023/12/23 04:22:07;;;;;;;4.80;1.25;;;1.60;1.00;;;;;;5111056;27;20231;-71
2023/12/23 04:24:33;;;;;;;1.88;1.17;;;1.60;1.00;;;;;;5110479;27;20320;-71
2023/12/23 04:27:01;;;;;;;5.07;1.48;;;1.70;1.00;;;;;;5109492;27;20239;-69
2023/12/23 04:29:29;;;;;;;5.55;1.20;;;1.70;1.00;;;;;;5110235;27;20289;-70
2023/12/23 04:31:56;;;;;;;3.63;1.27;;;1.70;1.00;;;;;;5109412;27;20281;-71
2023/12/23 04:34:23;;;;;;;7.28;1.25;;;1.70;1.00;;;;;;5110628;27;20238;-71
2023/12/23 04:36:50;;;;;;;3.05;1.10;;;1.80;1.00;;;;;;5111139;27;23189;-72
2023/12/23 04:39:18;;;;;;;2.95;1.42;;;1.80;1.00;;;;;;5107249;27;20300;-70
2023/12/23 04:41:48;;;;;;;11.68;2.33;;;1.80;1.00;;;;;;5110530;27;20236;-70
2023/12/23 04:44:15;;;;;;;6.82;1.75;;;1.90;1.00;;;;;;5108571;27;20235;-71
2023/12/23 04:46:43;;;;;;;7.93;2.35;;;1.90;1.00;;;;;;5110135;27;20315;-74
2023/12/23 04:49:10;;;;;;;4.22;1.42;;;2.00;1.00;;;;;;5109576;27;20261;-70
2023/12/23 04:51:43;;;;;;;5.75;1.50;;;2.00;1.00;;;;;;5107833;27;20235;-72
2023/12/23 04:54:10;;;;;;;4.75;1.73;;;2.00;1.00;;;;;;5109830;27;21140;-73
2023/12/23 04:56:39;;;;;;;10.63;1.60;;;2.00;1.00;;;;;;5106146;27;21248;-71
2023/12/23 04:59:06;;;;;;;3.75;1.92;;;2.10;1.00;;;;;;5110659;27;20255;-70
2023/12/23 05:01:33;;;;;;;6.07;2.30;;;2.10;1.00;;;;;;5109191;27;20267;-71
2023/12/23 05:04:00;;;;;;;11.45;3.35;;;2.10;1.00;;;;;;5104242;27;20983;-70
2023/12/23 05:06:27;;;;;;;9.25;2.28;;;2.20;1.00;;;;;;5103111;27;20239;-72
2023/12/23 05:08:54;;;;;;;5.00;1.85;;;2.20;1.00;;;;;;5109013;27;20243;-71
2023/12/23 05:11:21;;;;;;;4.55;1.60;;;2.20;1.00;;;;;;5106886;27;20683;-73
2023/12/23 05:13:51;;;;;;;6.45;1.65;;;2.30;1.00;;;;;;5108389;27;20235;-70
2023/12/23 05:16:18;;;;;;;5.00;1.55;;;2.30;1.00;;;;;;5111067;27;20235;-70
2023/12/23 05:18:45;;;;;;;5.15;1.95;;;2.30;1.00;;;;;;5106916;27;20270;-70
2023/12/23 05:21:12;;;;;;;9.43;1.45;;;2.30;1.00;;;;;;5107686;27;20243;-72
2023/12/23 05:23:39;;;;;;;2.97;1.60;;;2.40;1.00;;;;;;5105272;27;20842;-72
2023/12/23 05:26:09;;;;;;;10.02;2.67;;;2.40;1.00;;;;;;5107319;27;20315;-70
2023/12/23 05:28:36;;;;;;;3.85;1.83;;;2.40;1.00;;;;;;5108351;27;21021;-72
2023/12/23 05:31:04;;;;;;;8.88;1.73;;;2.40;1.00;;;;;;5105864;27;20245;-72
2023/12/23 05:33:31;;;;;;;6.53;1.70;;;2.50;1.00;;;;;;5106540;27;20310;-72
2023/12/23 05:35:58;;;;;;;5.43;2.05;;;2.50;1.00;;;;;;5111125;27;20262;-72
2023/12/23 05:38:25;;;;;;;7.03;2.22;;;2.50;1.00;;;;;;5108498;27;20254;-72
2023/12/23 05:40:52;;;;;;;7.00;2.00;;;2.50;1.00;;;;;;5105446;27;20245;-71
2023/12/23 05:43:19;;;;;;;5.35;2.55;;;2.60;1.00;;;;;;5106105;27;20239;-72
2023/12/23 05:45:46;;;;;;;6.90;1.92;;;2.60;1.00;;;;;;5107957;27;20245;-73
2023/12/23 05:48:15;;;;;;;8.68;2.00;;;2.70;1.00;;;;;;5107608;27;20263;-71
2023/12/23 05:50:43;;;;;;;5.72;1.83;;;2.70;1.00;;;;;;5107860;27;20706;-71
2023/12/23 05:53:10;;;;;;;6.78;1.73;;;2.70;1.00;;;;;;5105658;27;20326;-72
2023/12/23 05:55:37;;;;;;;5.03;1.90;;;2.80;1.00;;;;;;5108541;27;20754;-71
2023/12/23 05:58:04;;;;;;;8.40;2.22;;;2.90;1.00;;;;;;5104363;27;20662;-71
2023/12/23 06:00:31;;;;;;;7.35;3.17;;;2.90;1.00;;;;;;5099230;27;20239;-72
2023/12/23 06:02:58;;;;;;;6.45;3.08;;;2.90;1.00;;;;;;5102915;27;20420;-72
2023/12/23 06:05:26;;;;;;;3.92;1.80;;;3.00;1.00;;;;;;5109587;27;20257;-71
2023/12/23 06:07:55;;;;;;;7.45;1.98;;;3.00;1.00;;;;;;5104692;27;20325;-71
2023/12/23 06:10:24;;;;;;;4.93;1.40;;;3.10;1.00;;;;;;5103878;27;20302;-71
2023/12/23 06:12:51;;;;;;;8.18;1.70;;;3.10;1.00;;;;;;5094237;27;20236;-71
2023/12/23 06:15:18;;;;;;;5.45;1.65;;;3.10;1.00;;;;;;5106286;27;20350;-73
2023/12/23 06:17:48;;;;;;;15.77;3.22;;;3.10;1.00;;;;;;5106186;27;20851;-71
2023/12/23 06:20:15;;;;;;;10.02;2.20;;;3.10;1.00;;;;;;5106354;27;20230;-71
2023/12/23 06:22:43;;;;;;;7.30;2.75;;;3.10;1.00;;;;;;5105283;27;21071;-71
2023/12/23 06:25:10;;;;;;;7.35;1.80;;;3.10;1.00;;;;;;5104793;27;20231;-71
2023/12/23 06:27:38;;;;;;;6.05;1.80;;;3.10;1.00;;;;;;5106713;27;21599;-72
2023/12/23 06:30:06;;;;;;;10.55;2.22;;;3.10;1.00;;;;;;5104210;27;20605;-75
2023/12/23 06:32:33;;;;;;;5.82;1.52;;;3.20;1.00;;;;;;5104367;27;20250;-72
2023/12/23 06:35:00;;;;;;;7.93;2.00;;;3.20;1.00;;;;;;5108524;27;20305;-70
2023/12/23 06:37:27;;;;;;;5.72;1.65;;;3.20;1.00;;;;;;5101878;27;20322;-71
2023/12/23 06:39:59;;;;;;;6.68;2.40;;;3.20;1.00;;;;;;5104050;27;20339;-70
2023/12/23 06:42:26;;;;;;;8.30;2.20;;;3.20;1.00;;;;;;5106761;27;20323;-75
2023/12/23 06:44:54;;;;;;;9.15;2.20;;;3.20;1.00;;;;;;5103068;27;20951;-75
2023/12/23 06:47:23;;;;;;;5.82;1.73;;;3.20;1.00;;;;;;5106433;27;20928;-76
2023/12/23 06:49:50;;;;;;;5.63;2.25;;;3.20;1.00;;;;;;5108734;27;20326;-75
2023/12/23 06:52:17;;;;;;;2.65;1.63;;;3.20;1.00;;;;;;5106816;27;20714;-74
2023/12/23 06:54:44;;;;;;;5.43;1.98;;;3.20;1.00;;;;;;5106601;27;20234;-75
2023/12/23 06:57:12;;;;;;;5.65;2.65;;;3.20;1.00;;;;;;5105840;27;20246;-75
2023/12/23 06:59:39;;;;;;;8.27;1.80;;;3.30;1.00;;;;;;5107343;27;20271;-75
2023/12/23 07:02:06;;;;;;;5.22;2.20;;;3.20;1.00;;;;;;5109354;27;20227;-75
2023/12/23 07:04:33;;;;;;;5.72;1.85;;;3.20;1.00;;;;;;5106221;27;20235;-76
2023/12/23 07:07:00;;;;;;;4.13;1.63;;;3.30;1.00;;;;;;5103804;27;20255;-74
2023/12/23 07:09:30;;;;;;;6.75;1.50;;;3.30;1.00;;;;;;5108500;27;20231;-78
2023/12/23 07:11:58;;;;;;;4.90;1.55;;;3.30;1.00;;;;;;5106576;27;20241;-77
2023/12/23 07:14:27;;;;;;;3.83;1.83;;;3.30;1.00;;;;;;5105141;27;20232;-74
2023/12/23 07:16:54;;;;;;;4.30;1.52;;;3.30;1.00;;;;;;5107639;27;20752;-75
2023/12/23 07:19:21;;;;;;;6.88;2.33;;;3.30;1.00;;;;;;5105577;27;21012;-74
2023/12/23 07:21:53;;;;;;;4.05;1.63;;;3.30;1.00;;;;;;5103175;27;20239;-75
2023/12/23 07:24:19;;;;;;;12.02;3.17;;;3.40;1.00;;;;;;5106533;27;20237;-75
2023/12/23 07:26:46;;;;;;;3.83;1.70;;;3.40;1.00;;;;;;5105716;27;20245;-75
2023/12/23 07:29:14;;;;;;;6.30;1.90;;;3.40;1.00;;;;;;5109410;27;20245;-75
2023/12/23 07:31:42;;;;;;;6.13;1.60;;;3.40;1.00;;;;;;5110738;27;20238;-75
2023/12/23 07:34:09;;;;;;;9.57;3.22;;;3.40;1.00;;;;;;5110783;27;21058;-76
2023/12/23 07:36:36;;;;;;;3.03;1.90;;;3.40;1.00;;;;;;5108186;27;20267;-75
2023/12/23 07:39:05;;;;;;;5.63;1.75;;;3.40;1.00;;;;;;5112861;27;20296;-75
2023/12/23 07:41:31;;;;;;;3.60;1.35;;;3.40;1.00;;;;;;5110414;27;20271;-75
2023/12/23 07:43:58;;;;;;;2.90;2.10;;;3.40;1.00;;;;;;5112044;27;20722;-76
2023/12/23 07:46:25;;;;;;;4.75;1.70;;;3.40;1.00;;;;;;5112193;27;20316;-75
2023/12/23 07:48:54;;;;;;;5.18;1.42;;;3.40;1.00;;;;;;5111308;27;21640;-75
2023/12/23 07:51:21;;;;;;;5.15;1.35;;;3.30;1.00;;;;;;5109040;27;20343;-76
2023/12/23 07:53:48;;;;;;;3.22;1.30;;;3.40;1.00;;;;;;5113215;27;20413;-76
2023/12/23 07:56:15;;;;;;;2.42;0.95;;;3.40;1.00;;;;;;5109848;27;20731;-75
2023/12/23 07:58:42;;;;;;;5.15;1.52;;;3.40;1.00;;;;;;5108074;27;20289;-76
2023/12/23 08:01:09;;;;;;;3.53;1.48;;;3.50;1.00;;;;;;5107729;27;21135;-77
2023/12/23 08:03:37;;;;;;;2.88;1.10;;;3.50;1.00;;;;;;5112784;27;20249;-75
2023/12/23 08:06:06;;;;;;;5.55;1.23;;;3.60;1.00;;;;;;5111718;27;20234;-75
2023/12/23 08:08:33;;;;;;;1.52;0.98;;;3.50;1.00;;;;;;5107677;27;20235;-75
2023/12/23 08:11:00;;;;;;;2.75;1.27;;;3.60;1.00;;;;;;5108334;27;20235;-75
2023/12/23 08:13:28;;;;;;;5.28;1.27;;;3.50;1.00;;;;;;5108934;27;20310;-75
2023/12/23 08:15:55;;;;;;;2.63;1.25;;;3.60;1.00;;;;;;5105742;27;20235;-76
2023/12/23 08:18:22;;;;;;;4.78;1.45;;;3.60;1.00;;;;;;5112775;27;20239;-77
2023/12/23 08:20:49;;;;;;;1.95;1.30;;;3.60;1.00;;;;;;5111902;27;20308;-74
2023/12/23 08:23:17;;;;;;;10.38;1.90;;;3.60;1.00;;;;;;5108571;27;20292;-77
2023/12/23 08:25:46;;;;;;;2.03;1.50;;;3.60;1.00;;;;;;5109135;27;20327;-74
2023/12/23 08:28:13;;;;;;;5.00;1.83;;;3.60;1.00;;;;;;5109162;27;20247;-76
2023/12/23 08:30:40;;;;;;;3.40;1.98;;;3.60;1.00;;;;;;5107430;27;20231;-75
2023/12/23 08:33:07;;;;;;;3.78;1.88;;;3.50;1.00;;;;;;5109311;27;20232;-75
2023/12/23 08:35:34;;;;;;;3.00;1.42;;;3.60;1.00;;;;;;5108924;27;20236;-77
2023/12/23 08:38:01;;;;;;;2.85;1.80;;;3.60;1.00;;;;;;5109941;27;20259;-75
2023/12/23 08:40:29;;;;;;;2.30;2.05;;;3.60;1.00;;;;;;5107432;27;20325;-75
2023/12/23 08:42:56;;;;;;;1.90;1.25;;;3.60;1.00;;;;;;5108767;27;20315;-75
2023/12/23 08:45:23;;;;;;;3.22;1.38;;;3.60;1.00;;;;;;5110746;27;20339;-76
2023/12/23 08:47:50;;;;;;;4.45;1.30;;;3.60;1.00;;;;;;5107124;27;26031;-76
2023/12/23 08:50:20;;;;;;;5.03;1.90;;;3.60;1.00;;;;;;5110252;27;20324;-73
2023/12/23 08:52:47;;;;;;;2.10;1.35;;;3.70;1.00;;;;;;5106936;27;20234;-76
2023/12/23 08:55:14;;;;;;;2.55;1.67;;;3.70;1.00;;;;;;5111067;27;20281;-74
2023/12/23 08:57:43;;;;;;;4.75;2.03;;;3.60;1.00;;;;;;5109816;27;20686;-75
2023/12/23 09:00:10;;;;;;;4.78;1.77;;;3.70;1.00;;;;;;5111161;27;20255;-76
2023/12/23 09:02:37;;;;;;;3.70;1.83;;;3.70;1.00;;;;;;5109471;27;20358;-76
2023/12/23 09:05:05;;;;;;;6.20;2.53;;;3.70;1.00;;;;;;5109292;27;20942;-74
2023/12/23 09:07:32;;;;;;;3.78;1.65;;;3.70;1.00;;;;;;5108484;27;20335;-75
2023/12/23 09:09:58;;;;;;;3.25;1.80;;;3.70;1.00;;;;;;5107209;27;20263;-75
2023/12/23 09:12:26;;;;;;;2.33;1.45;;;3.80;1.00;;;;;;5109121;27;20254;-76
2023/12/23 09:14:55;;;;;;;4.45;1.55;;;3.80;1.00;;;;;;5108067;27;20739;-77
2023/12/23 09:17:22;;;;;;;3.33;1.58;;;3.80;1.00;;;;;;5110305;27;20331;-75
2023/12/23 09:19:49;;;;;;;4.15;1.85;;;3.70;1.00;;;;;;5103798;27;20975;-75
2023/12/23 09:22:16;;;;;;;7.95;2.28;;;3.70;1.00;;;;;;5110127;27;20232;-75
2023/12/23 09:24:45;;;;;;;7.75;1.92;;;3.70;1.00;;;;;;5105915;27;20242;-75
2023/12/23 09:27:12;;;;;;;2.78;1.40;;;3.70;1.00;;;;;;5104575;27;20239;-76
2023/12/23 09:29:41;;;;;;;6.40;2.28;;;3.70;1.00;;;;;;5113368;27;20753;-77
2023/12/23 09:32:09;;;;;;;2.80;1.85;;;3.60;1.00;;;;;;5108489;27;20267;-74
2023/12/23 09:34:36;;;;;;;4.03;1.92;;;3.50;1.00;;;;;;5092402;28;20706;-75
2023/12/23 09:37:04;;;;;;;3.25;1.35;;;3.40;1.00;;;;;;5113025;27;20687;-75
2023/12/23 09:39:31;;;;;;;4.28;1.40;;;3.30;1.00;;;;;;5106980;27;20569;-75
2023/12/23 09:42:00;;;;;;;3.50;2.13;;;3.20;1.00;;;;;;5111405;27;20236;-76
2023/12/23 09:44:27;;;;;;;6.82;1.73;;;3.20;1.00;;;;;;5114071;27;20235;-75
2023/12/23 09:46:55;;;;;;;3.47;1.80;;;3.20;1.00;;;;;;5110601;27;20294;-75
2023/12/23 09:49:24;;;;;;;2.47;1.88;;;3.10;1.00;;;;;;5113015;27;20243;-78
2023/12/23 09:51:51;;;;;;;3.33;1.60;;;3.10;1.00;;;;;;5108191;27;20245;-77
2023/12/23 09:54:24;;;;;;;4.18;1.70;;;3.10;1.00;;;;;;5112076;27;20318;-75
2023/12/23 09:56:51;;;;;;;2.78;1.55;;;3.10;1.00;;;;;;5112240;27;20239;-76
2023/12/23 09:59:21;;;;;;;3.65;1.83;;;3.00;1.00;;;;;;5110912;27;20239;-77
2023/12/23 10:01:48;;;;;;;3.83;1.60;;;3.00;1.00;;;;;;5110545;27;20232;-76
2023/12/23 10:04:15;;;;;;;3.30;1.30;;;3.00;1.00;;;;;;5112187;27;20239;-74
2023/12/23 10:06:49;;;;;;;5.35;2.35;;;3.00;1.00;;;;;;5110316;27;20274;-76
2023/12/23 10:09:16;;;;;;;4.00;1.65;;;3.00;1.00;;;;;;5109529;27;20239;-74
2023/12/23 10:11:43;;;;;;;2.22;1.40;;;2.90;1.00;;;;;;5113230;27;20946;-78
2023/12/23 10:14:10;;;;;;;2.72;1.40;;;2.90;1.00;;;;;;5112088;27;20243;-79
2023/12/23 10:16:36;;;;;;;3.35;1.77;;;2.90;1.00;;;;;;5107646;27;20255;-73
2023/12/23 10:19:04;;;;;;;2.05;1.30;;;2.90;1.00;;;;;;5106983;27;20300;-74
2023/12/23 10:21:33;;;;;;;3.05;1.38;;;2.90;1.00;;;;;;5110277;27;20283;-72
2023/12/23 10:24:02;;;;;;;2.17;1.05;;;2.80;1.00;;;;;;5109712;27;20725;-70
2023/12/23 10:26:31;;;;;;;2.55;1.42;;;2.80;1.00;;;;;;5106616;27;20317;-73
2023/12/23 10:29:04;;;;;;;1.75;1.27;;;2.90;1.00;;;;;;5106646;27;20340;-70
2023/12/23 10:31:32;;;;;;;2.42;1.55;;;2.80;1.00;;;;;;5108975;27;20270;-72
2023/12/23 10:34:03;;;;;;;2.83;1.75;;;2.80;1.00;;;;;;5110711;27;20238;-71
2023/12/23 10:36:32;;;;;;;2.35;1.38;;;2.80;1.00;;;;;;5111180;27;20766;-70
2023/12/23 10:39:04;;;;;;;1.75;1.40;;;2.70;1.00;;;;;;5116021;27;20231;-71
2023/12/23 10:41:53;;;;;;;3.90;1.63;;;2.70;1.00;;;;;;5109127;27;20966;-75
2023/12/23 10:44:21;;;;;;;2.17;1.45;;;2.80;1.00;;;;;;5110122;27;20239;-72
2023/12/23 10:46:51;;;;;;;5.38;2.15;;;2.70;1.00;;;;;;5110416;27;20701;-70
2023/12/23 10:49:19;;;;;;;2.22;1.80;;;2.70;1.00;;;;;;5110335;27;20231;-70
2023/12/23 10:51:48;;;;;;;2.65;1.63;;;2.60;1.00;;;;;;5089445;27;20265;-71
2023/12/23 10:54:18;;;;;;;4.28;1.95;;;2.60;1.00;;;;;;5111887;27;20290;-71
2023/12/23 10:56:46;;;;;;;4.88;2.60;;;2.60;1.00;;;;;;5108044;27;20258;-77
2023/12/23 10:59:13;;;;;;;2.58;1.55;;;2.70;1.00;;;;;;5111826;27;20266;-75
2023/12/23 11:01:42;;;;;;;4.18;2.20;;;2.70;1.00;;;;;;5112541;27;20254;-74
2023/12/23 11:04:09;;;;;;;3.72;1.95;;;2.60;1.00;;;;;;5107863;27;20881;-73
2023/12/23 11:06:42;;;;;;;7.15;2.92;;;2.60;1.00;;;;;;5091363;27;20243;-73
2023/12/23 11:09:10;;;;;;;2.08;1.35;;;2.60;1.00;;;;;;5110140;27;20337;-74
2023/12/23 11:11:41;;;;;;;2.03;1.42;;;2.60;1.00;;;;;;5108058;27;20241;-78
2023/12/23 11:14:09;;;;;;;1.98;1.30;;;2.50;1.00;;;;;;5110006;27;21815;-77
2023/12/23 11:16:38;;;;;;;3.30;1.80;;;2.50;1.00;;;;;;5112362;27;20346;-76
2023/12/23 11:19:06;;;;;;;3.20;1.65;;;2.50;1.00;;;;;;5111684;27;20285;-77
2023/12/23 11:21:34;;;;;;;2.33;2.13;;;2.60;1.00;;;;;;5105016;27;20223;-75
2023/12/23 11:24:02;;;;;;;2.10;1.77;;;2.60;1.00;;;;;;5109103;27;20730;-76
2023/12/23 11:26:52;;;;;;;1.95;1.73;;;2.70;1.00;;;;;;5109676;27;20328;-76
2023/12/23 11:29:21;;;;;;;3.40;2.00;;;2.70;1.00;;;;;;5107774;27;20227;-75
2023/12/23 11:31:48;;;;;;;2.75;2.17;;;2.70;1.00;;;;;;5108400;27;20235;-76
2023/12/23 11:34:17;;;;;;;2.10;1.90;;;2.70;1.00;;;;;;5107708;27;20322;-75
2023/12/23 11:36:45;;;;;;;2.58;1.90;;;2.60;1.00;;;;;;5109972;27;20330;-75
2023/12/23 11:39:13;;;;;;;2.20;2.00;;;2.60;1.00;;;;;;5105691;27;20301;-75
2023/12/23 11:41:43;;;;;;;2.88;1.90;;;2.50;1.00;;;;;;5109022;27;20242;-74
2023/12/23 11:44:12;;;;;;;2.90;2.55;;;2.50;1.00;;;;;;5109355;27;21025;-79
2023/12/23 11:46:41;;;;;;;3.35;3.05;;;2.50;1.00;;;;;;5111821;27;22476;-75
2023/12/23 11:49:11;;;;;;;3.50;2.42;;;2.50;1.00;;;;;;5109267;27;20322;-76
2023/12/23 11:51:39;;;;;;;2.30;1.85;;;2.60;1.00;;;;;;5109441;27;20246;-75
2023/12/23 11:54:07;;;;;;;2.53;2.10;;;2.70;1.00;;;;;;5111148;27;20258;-74
2023/12/23 11:56:34;;;;;;;1.95;1.33;;;2.60;1.00;;;;;;5108476;27;20235;-76
2023/12/23 11:59:03;;;;;;;1.23;1.13;;;2.60;1.00;;;;;;5109567;27;20235;-74
2023/12/23 12:01:34;;;;;;;2.53;1.48;;;2.60;1.00;;;;;;5107090;27;20699;-74
2023/12/23 12:04:01;;;;;;;3.38;1.55;;;2.50;1.00;;;;;;5110882;27;20730;-74
2023/12/23 12:06:28;;;;;;;1.73;1.20;;;2.50;1.00;;;;;;5109319;27;20317;-75
2023/12/23 12:08:55;;;;;;;2.25;1.70;;;2.40;1.00;;;;;;5106919;27;20235;-73
2023/12/23 12:11:28;;;;;;;2.95;1.60;;;2.40;1.00;;;;;;5103870;27;20254;-74
2023/12/23 12:13:58;;;;;;;1.58;1.10;;;2.40;1.00;;;;;;5105876;27;20262;-71
2023/12/23 12:16:27;;;;;;;3.63;1.27;;;2.40;1.00;;;;;;5108275;27;20674;-75
2023/12/23 12:18:54;;;;;;;3.72;1.20;;;2.20;1.00;;;;;;5115313;27;20235;-76
2023/12/23 12:21:22;;;;;;;1.75;1.20;;;2.20;1.00;;;;;;5115507;27;20733;-78
2023/12/23 12:23:49;;;;;;;2.30;0.98;;;2.10;1.00;;;;;;5109560;27;20738;-75
2023/12/23 12:26:16;;;;;;;4.40;1.05;;;2.10;1.00;;;;;;5113321;27;20321;-76
2023/12/23 12:28:45;;;;;;;2.28;1.05;;;2.20;1.00;;;;;;5114523;27;20730;-76
2023/12/23 12:31:14;;;;;;;1.10;0.98;;;2.20;1.00;;;;;;5109118;27;20266;-77
2023/12/23 12:33:43;;;;;;;2.40;1.23;;;2.20;1.00;;;;;;5111055;27;20231;-75
2023/12/23 12:36:13;;;;;;;3.10;0.80;;;2.20;1.00;;;;;;5112738;27;20751;-77
2023/12/23 12:38:41;;;;;;;2.75;1.48;;;2.20;1.00;;;;;;5110995;27;20341;-74
2023/12/23 12:41:09;;;;;;;2.45;1.20;;;2.20;1.00;;;;;;5110515;27;20247;-74
2023/12/23 12:43:39;;;;;;;2.15;1.25;;;2.20;1.00;;;;;;5109515;27;20255;-75
2023/12/23 12:46:07;;;;;;;1.60;1.25;;;2.30;1.00;;;;;;5108050;27;20239;-76
2023/12/23 12:48:34;;;;;;;2.75;1.45;;;2.30;1.00;;;;;;5108872;27;20247;-77
2023/12/23 12:51:02;;;;;;;6.10;3.72;;;2.30;1.00;;;;;;5110722;27;20232;-74
2023/12/23 12:53:30;;;;;;;4.07;1.40;;;2.30;1.00;;;;;;5110295;27;20239;-74
2023/12/23 12:56:09;;;;;;;4.50;1.75;;;2.30;1.00;;;;;;5113073;27;20245;-76
2023/12/23 12:58:36;;;;;;;3.38;1.50;;;2.30;1.00;;;;;;5110482;27;20747;-73
2023/12/23 13:01:03;;;;;;;2.72;1.95;;;2.30;1.00;;;;;;5114147;27;20259;-75
2023/12/23 13:03:30;;;;;;;2.53;1.65;;;2.30;1.00;;;;;;5114852;27;20240;-76
2023/12/23 13:05:57;;;;;;;1.60;1.35;;;2.30;1.00;;;;;;5118911;27;20317;-75
2023/12/23 13:08:25;;;;;;;2.33;1.23;;;2.40;1.00;;;;;;5116093;27;20248;-76
2023/12/23 13:10:52;;;;;;;2.75;1.40;;;2.40;1.00;;;;;;5111357;27;20334;-76